createdAt,value
2022-10-05T00:01:21.988Z,4.69
2022-10-05T00:03:48.958Z,4.62
2022-10-05T00:06:15.913Z,4.51
2022-10-05T00:08:43.151Z,4.56
2022-10-05T00:11:13.598Z,4.53
2022-10-05T00:13:41.358Z,4.47
2022-10-05T00:16:17.472Z,4.38
2022-10-05T00:18:50.694Z,4.39
2022-10-05T00:21:27.251Z,4.57
2022-10-05T00:23:57.870Z,4.38
2022-10-05T00:26:26.945Z,4.39
2022-10-05T00:28:54.684Z,4.29
2022-10-05T00:31:24.613Z,4.28
2022-10-05T00:33:52.126Z,4.38
2022-10-05T00:36:19.514Z,4.12
2022-10-05T00:38:46.783Z,4.35
2022-10-05T00:41:47.232Z,4.41
2022-10-05T00:44:45.823Z,4.38
2022-10-05T00:47:31.302Z,4.40
2022-10-05T00:50:32.715Z,4.33
2022-10-05T00:53:16.139Z,4.38
2022-10-05T00:56:04.172Z,4.38
2022-10-05T00:59:14.483Z,4.36
2022-10-05T01:01:47.008Z,4.32
2022-10-05T01:04:13.652Z,4.28
2022-10-05T01:07:18.784Z,4.23
2022-10-05T01:10:06.174Z,4.20
2022-10-05T01:12:44.328Z,4.09
2022-10-05T01:15:23.989Z,4.01
2022-10-05T01:18:12.643Z,4.12
2022-10-05T01:21:02.862Z,4.10
2022-10-05T01:23:34.145Z,4.10
2022-10-05T01:26:26.863Z,4.03
2022-10-05T01:29:32.039Z,3.95
2022-10-05T01:32:40.905Z,4.02
2022-10-05T01:35:36.602Z,4.14
2022-10-05T01:38:19.613Z,4.21
2022-10-05T01:41:06.503Z,4.17
2022-10-05T01:44:03.712Z,4.20
2022-10-05T01:46:39.156Z,4.09
2022-10-05T01:51:47.758Z,3.91
2022-10-05T01:54:17.117Z,4.16
2022-10-05T01:56:57.271Z,4.35
2022-10-05T02:02:16.767Z,4.43
2022-10-05T02:05:06.739Z,4.38
2022-10-05T02:07:44.288Z,4.29
2022-10-05T02:12:57.627Z,4.51
2022-10-05T02:15:35.425Z,4.23
2022-10-05T02:18:12.555Z,4.31
2022-10-05T02:20:42.577Z,4.55
2022-10-05T02:23:18.243Z,4.63
2022-10-05T02:25:47.858Z,4.66
2022-10-05T02:28:22.134Z,4.61
2022-10-05T02:31:02.299Z,4.31
2022-10-05T02:33:30.232Z,4.76
2022-10-05T02:36:30.172Z,4.76
2022-10-05T02:39:29.831Z,4.72
2022-10-05T02:42:19.151Z,4.58
2022-10-05T02:44:58.601Z,4.88
2022-10-05T02:53:05.466Z,4.96
2022-10-05T02:55:43.764Z,4.92
2022-10-05T02:58:16.442Z,5.00
2022-10-05T03:00:50.909Z,4.99
2022-10-05T03:03:28.155Z,5.02
2022-10-05T03:06:04.103Z,4.97
2022-10-05T03:08:55.626Z,5.00
2022-10-05T03:11:28.501Z,5.12
2022-10-05T03:14:21.469Z,5.20
2022-10-05T03:17:19.342Z,5.12
2022-10-05T03:20:15.984Z,5.04
2022-10-05T03:22:54.772Z,5.22
2022-10-05T03:25:30.669Z,5.22
2022-10-05T03:28:13.592Z,5.25
2022-10-05T03:31:14.313Z,5.05
2022-10-05T03:33:59.503Z,5.06
2022-10-05T03:36:35.372Z,5.02
2022-10-05T03:39:30.831Z,5.01
2022-10-05T03:42:24.703Z,5.08
2022-10-05T03:45:05.772Z,4.92
2022-10-05T03:48:03.276Z,4.86
2022-10-05T03:50:42.872Z,4.82
2022-10-05T03:53:37.934Z,4.89
2022-10-05T03:56:35.168Z,4.80
2022-10-05T03:59:32.204Z,4.79
2022-10-05T04:02:02.952Z,4.84
2022-10-05T04:04:42.652Z,4.69
2022-10-05T04:07:19.862Z,4.57
2022-10-05T04:09:50.053Z,4.56
2022-10-05T04:12:25.908Z,4.53
2022-10-05T04:15:18.595Z,4.47
2022-10-05T04:17:50.327Z,4.35
2022-10-05T04:20:21.874Z,4.37
2022-10-05T04:23:19.467Z,4.34
2022-10-05T04:26:02.488Z,4.33
2022-10-05T04:29:04.947Z,4.27
2022-10-05T04:31:58.466Z,4.33
2022-10-05T04:34:53.364Z,4.37
2022-10-05T04:37:31.852Z,4.27
2022-10-05T04:40:30.778Z,4.17
2022-10-05T04:43:05.550Z,4.15
2022-10-05T04:45:43.114Z,4.04
2022-10-05T04:48:23.257Z,4.09
2022-10-05T04:51:10.035Z,4.05
2022-10-05T04:53:55.380Z,4.10
2022-10-05T04:56:25.119Z,4.07
2022-10-05T04:59:21.323Z,3.95
2022-10-05T05:02:12.044Z,3.98
2022-10-05T05:05:08.956Z,4.09
2022-10-05T05:07:46.980Z,4.11
2022-10-05T05:10:40.980Z,4.13
2022-10-05T05:13:30.532Z,4.22
2022-10-05T05:16:16.304Z,4.15
2022-10-05T05:19:04.818Z,4.11
2022-10-05T05:21:51.853Z,4.11
2022-10-05T05:24:30.334Z,4.11
2022-10-05T05:27:34.524Z,4.12
2022-10-05T05:30:12.760Z,4.14
2022-10-05T05:33:01.277Z,4.15
2022-10-05T05:35:46.217Z,4.20
2022-10-05T05:38:44.354Z,4.22
2022-10-05T05:41:15.030Z,4.24
2022-10-05T05:43:59.698Z,4.30
2022-10-05T05:47:02.880Z,4.34
2022-10-05T05:50:01.820Z,4.37
2022-10-05T05:52:39.112Z,4.43
2022-10-05T05:55:12.208Z,4.49
2022-10-05T05:57:44.836Z,4.59
2022-10-05T06:00:22.232Z,4.47
2022-10-05T06:02:52.095Z,4.51
2022-10-05T06:05:28.174Z,4.46
2022-10-05T06:07:58.342Z,4.46
2022-10-05T06:10:28.945Z,4.49
2022-10-05T06:13:01.883Z,4.50
2022-10-05T06:16:00.201Z,4.58
2022-10-05T06:18:29.051Z,4.53
2022-10-05T06:21:16.098Z,4.62
2022-10-05T06:23:53.943Z,4.81
2022-10-05T06:26:32.957Z,4.82
2022-10-05T06:29:08.590Z,4.59
2022-10-05T06:32:06.076Z,4.59
2022-10-05T06:34:47.823Z,4.73
2022-10-05T06:37:28.408Z,4.69
2022-10-05T06:40:11.272Z,4.66
2022-10-05T06:43:05.619Z,4.72
2022-10-05T06:45:50.404Z,4.81
2022-10-05T06:48:25.562Z,4.91
2022-10-05T06:51:25.412Z,4.96
2022-10-05T06:54:19.713Z,5.02
2022-10-05T06:56:52.380Z,5.25
2022-10-05T07:00:02.648Z,5.28
2022-10-05T07:02:49.634Z,5.42
2022-10-05T07:05:51.999Z,5.40
2022-10-05T07:08:37.346Z,5.57
2022-10-05T07:11:56.559Z,5.53
2022-10-05T07:14:54.481Z,5.68
2022-10-05T07:17:34.326Z,5.76
2022-10-05T07:20:14.411Z,5.85
2022-10-05T07:22:50.663Z,5.83
2022-10-05T07:25:22.983Z,5.90
2022-10-05T07:28:18.411Z,6.09
2022-10-05T07:30:58.933Z,6.02
2022-10-05T07:33:43.702Z,6.17
2022-10-05T07:36:41.789Z,6.41
2022-10-05T07:39:18.752Z,6.60
2022-10-05T07:41:53.037Z,6.93
2022-10-05T07:44:32.243Z,7.29
2022-10-05T07:47:15.575Z,7.72
2022-10-05T07:49:56.476Z,8.47
2022-10-05T07:52:36.683Z,8.87
2022-10-05T07:55:47.245Z,9.22
2022-10-05T07:58:13.967Z,9.70
2022-10-05T08:01:05.032Z,9.80
2022-10-05T08:03:45.359Z,9.96
2022-10-05T08:06:19.502Z,10.34
2022-10-05T08:08:57.573Z,10.70
2022-10-05T08:12:03.409Z,11.03
2022-10-05T08:14:43.887Z,11.34
2022-10-05T08:17:43.687Z,11.57
2022-10-05T08:20:23.282Z,11.67
2022-10-05T08:22:58.882Z,11.69
2022-10-05T08:25:38.973Z,11.82
2022-10-05T08:28:11.504Z,11.92
2022-10-05T08:30:54.233Z,12.07
2022-10-05T08:33:23.012Z,11.87
2022-10-05T08:36:03.012Z,11.67
2022-10-05T08:38:32.422Z,11.66
2022-10-05T08:41:28.333Z,11.83
2022-10-05T08:44:15.043Z,12.14
2022-10-05T08:46:59.913Z,12.38
2022-10-05T08:49:46.387Z,12.39
2022-10-05T08:52:22.379Z,12.70
2022-10-05T08:55:34.133Z,12.76
2022-10-05T08:58:03.933Z,13.23
2022-10-05T09:01:06.795Z,13.23
2022-10-05T09:03:56.686Z,13.39
2022-10-05T09:06:38.643Z,13.44
2022-10-05T09:09:30.903Z,13.86
2022-10-05T09:12:41.822Z,14.00
2022-10-05T09:15:25.864Z,14.12
2022-10-05T09:18:18.952Z,13.95
2022-10-05T09:20:55.302Z,14.06
2022-10-05T09:23:34.303Z,14.27
2022-10-05T09:26:29.048Z,14.67
2022-10-05T09:29:14.265Z,14.97
2022-10-05T09:32:16.312Z,15.09
2022-10-05T09:35:01.561Z,15.03
2022-10-05T09:38:10.232Z,14.93
2022-10-05T09:40:47.841Z,14.95
2022-10-05T09:44:02.387Z,15.08
2022-10-05T09:46:44.285Z,15.13
2022-10-05T09:49:23.250Z,15.09
2022-10-05T09:51:56.507Z,15.10
2022-10-05T09:55:03.043Z,14.94
2022-10-05T09:57:41.585Z,14.77
2022-10-05T10:00:29.461Z,14.89
2022-10-05T10:03:14.996Z,14.88
2022-10-05T10:06:14.065Z,14.86
2022-10-05T10:08:55.243Z,15.06
2022-10-05T10:11:46.100Z,15.29
2022-10-05T10:14:22.638Z,15.37
2022-10-05T10:16:55.799Z,15.43
2022-10-05T10:20:00.429Z,15.49
2022-10-05T10:23:04.248Z,15.61
2022-10-05T10:26:05.358Z,15.75
2022-10-05T10:28:51.100Z,15.82
2022-10-05T10:31:37.150Z,15.79
2022-10-05T10:34:42.895Z,15.81
2022-10-05T10:37:34.764Z,16.01
2022-10-05T10:40:23.542Z,16.10
2022-10-05T10:42:56.557Z,16.12
2022-10-05T10:45:38.138Z,16.06
2022-10-05T10:48:11.586Z,16.12
2022-10-05T10:51:00.452Z,16.20
2022-10-05T10:53:53.414Z,16.28
2022-10-05T10:56:39.298Z,16.16
2022-10-05T10:59:30.848Z,16.19
2022-10-05T11:02:19.507Z,16.11
2022-10-05T11:04:55.401Z,16.17
2022-10-05T11:07:43.525Z,16.44
2022-10-05T11:10:42.991Z,16.65
2022-10-05T11:13:22.213Z,16.60
2022-10-05T11:16:19.584Z,16.51
2022-10-05T11:19:05.184Z,16.52
2022-10-05T11:21:53.224Z,16.60
2022-10-05T11:24:25.752Z,16.57
2022-10-05T11:27:08.582Z,16.52
2022-10-05T11:29:46.170Z,16.50
2022-10-05T11:32:50.412Z,16.46
2022-10-05T11:35:54.617Z,16.33
2022-10-05T11:38:36.980Z,16.58
2022-10-05T11:41:28.682Z,16.54
2022-10-05T11:44:16.885Z,16.49
2022-10-05T11:46:58.609Z,16.75
2022-10-05T11:49:40.651Z,16.95
2022-10-05T11:52:25.980Z,16.83
2022-10-05T11:55:29.589Z,17.09
2022-10-05T11:58:04.317Z,17.10
2022-10-05T12:00:45.256Z,17.12
2022-10-05T12:03:21.096Z,17.52
2022-10-05T12:06:14.931Z,17.55
2022-10-05T12:08:44.434Z,17.67
2022-10-05T12:11:46.833Z,17.86
2022-10-05T12:14:28.624Z,17.75
2022-10-05T12:17:10.583Z,17.51
2022-10-05T12:19:58.632Z,17.61
2022-10-05T12:22:33.956Z,17.60
2022-10-05T12:25:18.050Z,17.55
2022-10-05T12:27:52.556Z,17.55
2022-10-05T12:30:27.795Z,17.59
2022-10-05T12:33:15.908Z,17.56
2022-10-05T12:35:52.560Z,17.59
2022-10-05T12:38:46.925Z,17.70
2022-10-05T12:41:48.487Z,17.74
2022-10-05T12:44:33.857Z,17.77
2022-10-05T12:47:40.667Z,17.64
2022-10-05T12:50:39.688Z,17.81
2022-10-05T12:53:17.013Z,17.68
2022-10-05T12:56:24.272Z,17.55
2022-10-05T13:03:08.851Z,17.29
2022-10-05T13:06:14.924Z,17.19
2022-10-05T13:08:57.513Z,17.22
2022-10-05T13:11:35.388Z,17.12
2022-10-05T13:14:14.409Z,17.32
2022-10-05T13:17:04.318Z,17.01
2022-10-05T13:19:40.698Z,16.88
2022-10-05T13:22:22.940Z,17.36
2022-10-05T13:25:18.000Z,17.37
2022-10-05T13:27:51.104Z,17.34
2022-10-05T13:30:22.431Z,17.39
2022-10-05T13:32:57.828Z,17.08
2022-10-05T13:35:53.453Z,17.51
2022-10-05T13:38:28.713Z,17.76
2022-10-05T13:41:27.577Z,17.70
2022-10-05T13:44:13.749Z,18.02
2022-10-05T13:46:58.213Z,18.07
2022-10-05T13:49:33.264Z,18.16
2022-10-05T13:55:11.892Z,18.38
2022-10-05T13:57:51.850Z,18.61
2022-10-05T14:00:25.675Z,18.33
2022-10-05T14:02:59.809Z,18.16
2022-10-05T14:05:30.562Z,18.08
2022-10-05T14:08:16.432Z,18.10
2022-10-05T14:10:46.075Z,17.97
2022-10-05T14:13:27.495Z,17.97
2022-10-05T14:16:07.747Z,17.74
2022-10-05T14:18:37.574Z,17.75
2022-10-05T14:21:04.193Z,17.62
2022-10-05T14:23:31.164Z,17.43
2022-10-05T14:25:58.023Z,17.32
2022-10-05T14:28:28.675Z,17.21
2022-10-05T14:31:16.406Z,17.05
2022-10-05T14:33:43.565Z,16.94
2022-10-05T14:36:23.649Z,16.84
2022-10-05T14:38:58.096Z,16.92
2022-10-05T14:41:27.692Z,16.74
2022-10-05T14:43:58.583Z,16.79
2022-10-05T14:46:29.231Z,16.84
2022-10-05T14:49:24.273Z,16.68
2022-10-05T14:51:52.185Z,16.65
2022-10-05T14:54:30.940Z,16.70
2022-10-05T14:57:17.137Z,16.56
2022-10-05T15:00:17.172Z,16.31
2022-10-05T15:03:12.984Z,16.31
2022-10-05T15:05:45.764Z,16.26
2022-10-05T15:08:12.407Z,16.06
2022-10-05T15:10:52.772Z,16.11
2022-10-05T15:13:23.873Z,15.90
2022-10-05T15:15:54.891Z,15.86
2022-10-05T15:18:32.227Z,15.87
2022-10-05T15:21:32.866Z,15.67
2022-10-05T15:24:09.484Z,15.56
2022-10-05T15:26:50.674Z,15.43
2022-10-05T15:29:36.327Z,15.74
2022-10-05T15:32:21.817Z,15.69
2022-10-05T15:35:28.874Z,15.41
2022-10-05T15:38:21.174Z,15.29
2022-10-05T15:41:10.312Z,14.89
2022-10-05T15:43:47.777Z,14.88
2022-10-05T15:46:43.681Z,14.83
2022-10-05T15:49:49.189Z,15.04
2022-10-05T15:52:25.844Z,14.80
2022-10-05T15:55:14.463Z,14.99
2022-10-05T15:57:56.463Z,15.01
2022-10-05T16:00:25.558Z,14.63
2022-10-05T16:02:57.732Z,14.63
2022-10-05T16:06:04.923Z,14.58
2022-10-05T16:08:53.232Z,14.39
2022-10-05T16:11:45.093Z,14.26
2022-10-05T16:14:30.401Z,14.08
2022-10-05T16:17:24.330Z,14.13
2022-10-05T16:19:53.828Z,13.87
2022-10-05T16:22:44.146Z,13.75
2022-10-05T16:25:22.397Z,13.65
2022-10-05T16:28:05.944Z,13.55
2022-10-05T16:30:50.085Z,13.42
2022-10-05T16:33:54.661Z,13.43
2022-10-05T16:36:59.883Z,13.37
2022-10-05T16:39:52.185Z,13.25
2022-10-05T16:42:35.063Z,13.11
2022-10-05T16:45:26.056Z,13.09
2022-10-05T16:48:09.194Z,13.07
2022-10-05T16:50:49.757Z,12.98
2022-10-05T16:53:44.280Z,12.78
2022-10-05T16:56:39.590Z,12.72
2022-10-05T16:59:41.361Z,12.85
2022-10-05T17:02:32.138Z,12.83
2022-10-05T17:05:18.113Z,12.79
2022-10-05T17:07:47.687Z,12.59
2022-10-05T17:10:37.193Z,12.53
2022-10-05T17:13:16.476Z,12.54
2022-10-05T17:16:04.419Z,12.38
2022-10-05T17:18:57.469Z,12.30
2022-10-05T17:22:08.942Z,12.29
2022-10-05T17:24:53.978Z,12.15
2022-10-05T17:27:35.332Z,12.09
2022-10-05T17:30:28.558Z,11.99
2022-10-05T17:32:57.433Z,11.95
2022-10-05T17:35:54.093Z,11.92
2022-10-05T17:38:35.655Z,11.85
2022-10-05T17:41:18.119Z,11.77
2022-10-05T17:44:16.562Z,11.84
2022-10-05T17:46:55.305Z,11.78
2022-10-05T17:49:40.327Z,11.72
2022-10-05T17:52:45.111Z,11.61
2022-10-05T17:55:32.373Z,11.64
2022-10-05T17:58:22.548Z,11.53
2022-10-05T18:00:58.532Z,11.50
2022-10-05T18:03:41.762Z,11.44
2022-10-05T18:06:32.147Z,11.40
2022-10-05T18:09:11.755Z,11.36
2022-10-05T18:11:41.995Z,11.36
2022-10-05T18:14:25.727Z,11.32
2022-10-05T18:17:10.402Z,11.37
2022-10-05T18:19:39.872Z,11.31
2022-10-05T18:22:28.053Z,11.06
2022-10-05T18:25:06.242Z,11.14
2022-10-05T18:27:51.022Z,11.07
2022-10-05T18:30:26.431Z,11.05
2022-10-05T18:33:23.850Z,10.95
2022-10-05T18:36:10.894Z,10.94
2022-10-05T18:38:47.600Z,10.97
2022-10-05T18:41:33.191Z,10.88
2022-10-05T18:44:06.704Z,10.84
2022-10-05T18:46:44.699Z,10.91
2022-10-05T18:49:29.898Z,10.82
2022-10-05T18:52:27.982Z,10.70
2022-10-05T18:55:07.242Z,10.71
2022-10-05T18:57:56.336Z,10.68
2022-10-05T19:00:27.749Z,10.70
2022-10-05T19:03:04.949Z,10.65
2022-10-05T19:06:06.597Z,10.69
2022-10-05T19:08:58.313Z,10.68
2022-10-05T19:11:41.693Z,10.63
2022-10-05T19:14:18.455Z,10.58
2022-10-05T19:17:14.362Z,10.49
2022-10-05T19:20:09.394Z,10.43
2022-10-05T19:22:54.961Z,10.42
2022-10-05T19:25:47.725Z,10.48
2022-10-05T19:28:49.933Z,10.42
2022-10-05T19:32:15.799Z,10.38
2022-10-05T19:34:50.003Z,10.33
2022-10-05T19:37:44.623Z,10.30
2022-10-05T19:40:39.387Z,10.24
2022-10-05T19:43:37.296Z,10.31
2022-10-05T19:46:04.797Z,10.16
2022-10-05T19:48:44.912Z,10.02
2022-10-05T19:51:27.408Z,9.84
2022-10-05T19:53:57.205Z,9.87
2022-10-05T19:56:27.152Z,9.81
2022-10-05T19:58:57.981Z,9.73
2022-10-05T20:01:26.647Z,9.65
2022-10-05T20:03:54.035Z,9.65
2022-10-05T20:06:22.898Z,9.66
2022-10-05T20:08:52.494Z,9.57
2022-10-05T20:11:27.443Z,9.40
2022-10-05T20:13:55.108Z,9.38
2022-10-05T20:16:49.919Z,9.44
2022-10-05T20:19:50.416Z,9.40
2022-10-05T20:22:37.623Z,9.52
2022-10-05T20:25:08.091Z,9.30
2022-10-05T20:27:41.616Z,9.19
2022-10-05T20:30:10.927Z,9.25
2022-10-05T20:32:38.615Z,8.89
2022-10-05T20:35:07.246Z,9.00
2022-10-05T20:37:33.977Z,9.09
2022-10-05T20:40:00.787Z,9.08
2022-10-05T20:42:27.529Z,9.06
2022-10-05T20:44:56.969Z,8.95
2022-10-05T20:47:24.611Z,8.97
2022-10-05T20:49:53.530Z,8.95
2022-10-05T20:52:20.996Z,8.87
2022-10-05T20:54:48.280Z,8.93
2022-10-05T20:57:15.038Z,8.77
2022-10-05T20:59:41.758Z,8.87
2022-10-05T21:02:08.487Z,8.91
2022-10-05T21:04:40.856Z,8.85
2022-10-05T21:07:08.520Z,8.89
2022-10-05T21:09:38.075Z,8.83
2022-10-05T21:12:04.896Z,8.79
2022-10-05T21:14:34.522Z,8.73
2022-10-05T21:17:02.248Z,8.68
2022-10-05T21:19:29.678Z,8.65
2022-10-05T21:21:59.490Z,8.63
2022-10-05T21:24:26.413Z,8.55
2022-10-05T21:26:57.162Z,8.52
2022-10-05T21:29:24.029Z,8.37
2022-10-05T21:31:51.253Z,8.40
2022-10-05T21:34:18.135Z,8.35
2022-10-05T21:36:45.075Z,8.37
2022-10-05T21:39:11.920Z,8.34
2022-10-05T21:41:38.657Z,8.28
2022-10-05T21:44:06.847Z,8.29
2022-10-05T21:46:36.358Z,8.24
2022-10-05T21:49:03.397Z,8.19
2022-10-05T21:51:30.107Z,8.09
2022-10-05T21:54:03.680Z,8.00
2022-10-05T21:56:36.482Z,7.97
2022-10-05T21:59:06.633Z,7.98
2022-10-05T22:01:36.006Z,7.98
2022-10-05T22:04:04.313Z,7.98
2022-10-05T22:06:31.272Z,7.89
2022-10-05T22:08:58.302Z,7.78
2022-10-05T22:11:25.662Z,7.64
2022-10-05T22:13:53.618Z,7.73
2022-10-05T22:16:23.820Z,7.84
2022-10-05T22:18:50.749Z,8.02
2022-10-05T22:21:17.612Z,7.90
2022-10-05T22:23:46.190Z,7.84
2022-10-05T22:26:16.745Z,7.80
2022-10-05T22:28:44.587Z,7.67
2022-10-05T22:31:12.884Z,7.69
2022-10-05T22:33:40.034Z,7.64
2022-10-05T22:36:08.010Z,7.81
2022-10-05T22:38:35.120Z,7.75
2022-10-05T22:41:01.859Z,7.63
2022-10-05T22:43:29.048Z,7.64
2022-10-05T22:45:56.746Z,7.65
2022-10-05T22:48:23.513Z,7.62
2022-10-05T22:50:50.262Z,7.59
2022-10-05T22:53:17.434Z,7.49
2022-10-05T22:55:44.155Z,7.49
2022-10-05T22:58:10.926Z,7.59
2022-10-05T23:03:34.438Z,7.67
2022-10-05T23:06:03.812Z,7.71
2022-10-05T23:08:32.623Z,7.68
2022-10-05T23:11:11.155Z,7.60
2022-10-05T23:13:38.115Z,7.65
2022-10-05T23:16:16.086Z,7.82
2022-10-05T23:18:43.282Z,7.66
2022-10-05T23:21:11.429Z,7.74
2022-10-05T23:23:40.643Z,7.56
2022-10-05T23:26:09.963Z,7.61
2022-10-05T23:28:38.510Z,7.45
2022-10-05T23:31:08.011Z,7.37
2022-10-05T23:33:35.507Z,7.37
2022-10-05T23:36:23.586Z,7.31
2022-10-05T23:38:50.324Z,7.25
2022-10-05T23:41:17.743Z,7.26
2022-10-05T23:43:44.491Z,7.09
2022-10-05T23:46:11.952Z,7.32
2022-10-05T23:48:39.726Z,7.26
2022-10-05T23:51:12.917Z,7.22
2022-10-05T23:53:39.653Z,6.94
2022-10-05T23:56:06.684Z,7.07
2022-10-05T23:58:33.596Z,7.18
